Time;durP1;ratioP1;P1;durP2;ratioP2;P2;SDS_P1;SDS_P2;PMS_P1;PMS_P2;Temp;Humidity;BMP_temperature;BMP_pressure;BME280_temperature;BME280_humidity;BME280_pressure;Samples;Min_cycle;Max_cycle;Signal;HPM_P1;HPM_P2
2021/11/19 00:00:50;;;;;;;;;;;;;;;13.18;70.38;101121.38;4940804;29;20356;-76
2021/11/19 00:03:16;;;;;;;;;;;;;;;13.09;71.17;101110.34;4941103;29;20247;-77
2021/11/19 00:05:42;;;;;;;;;;;;;;;13.04;71.59;101113.38;4940323;29;20013;-77
2021/11/19 00:08:08;;;;;;;;;;;;;;;13.06;72.34;101111.06;4940560;29;19962;-76
2021/11/19 00:10:35;;;;;;;;;;;;;;;13.04;72.39;101108.59;4940136;29;20049;-77
2021/11/19 00:13:00;;;;;;;;;;;;;;;12.99;72.60;101105.28;4940004;29;20278;-77
2021/11/19 00:15:26;;;;;;;;;;;;;;;13.04;72.37;101108.59;4939454;29;19915;-76
2021/11/19 00:17:52;;;;;;;;;;;;;;;13.04;71.47;101102.22;4939495;29;19926;-77
2021/11/19 00:20:20;;;;;;;;;;;;;;;13.22;70.47;101102.75;4940163;29;19914;-77
2021/11/19 00:22:45;;;;;;;;;;;;;;;13.36;69.96;101098.31;4940629;29;19922;-76
2021/11/19 00:25:11;;;;;;;;;;;;;;;13.31;70.09;101100.56;4940387;29;19922;-77
2021/11/19 00:27:37;;;;;;;;;;;;;;;13.19;71.04;101109.00;4940281;29;19914;-77
2021/11/19 00:30:06;;;;;;;;;;;;;;;13.16;71.19;101116.13;4939517;29;19969;-76
2021/11/19 00:32:31;;;;;;;;;;;;;;;13.15;71.56;101113.69;4940767;29;20398;-77
2021/11/19 00:35:00;;;;;;;;;;;;;;;13.31;70.24;101106.16;4943541;29;19919;-76
2021/11/19 00:37:26;;;;;;;;;;;;;;;13.42;69.89;101101.66;4944935;29;19914;-76
2021/11/19 00:39:54;;;;;;;;;;;;;;;13.32;69.93;101103.03;4944654;29;19918;-76
2021/11/19 00:42:20;;;;;;;;;;;;;;;13.46;68.95;101105.38;4943774;29;19980;-76
2021/11/19 00:44:47;;;;;;;;;;;;;;;13.49;68.83;101107.47;4943791;29;19918;-77
2021/11/19 00:47:12;;;;;;;;;;;;;;;13.35;69.88;101107.06;4943637;29;20013;-77
2021/11/19 00:49:39;;;;;;;;;;;;;;;13.41;69.60;101100.03;4944047;29;19969;-77
2021/11/19 00:52:08;;;;;;;;;;;;;;;13.70;68.17;101100.78;4944623;29;20013;-77
2021/11/19 00:54:34;;;;;;;;;;;;;;;13.85;66.97;101105.56;4946082;29;19922;-76
2021/11/19 00:57:04;;;;;;;;;;;;;;;14.01;66.07;101109.13;4945862;29;19914;-77
2021/11/19 00:59:31;;;;;;;;;;;;;;;14.13;65.43;101114.63;4945643;29;19915;-76
2021/11/19 01:01:58;;;;;;;;;;;;;;;14.21;65.29;101120.38;4946539;29;19965;-76
2021/11/19 01:04:24;;;;;;;;;;;;;;;14.32;64.41;101121.41;4945373;29;20013;-77
2021/11/19 01:06:50;;;;;;;;;;;;;;;14.27;64.97;101130.09;4945094;29;20004;-76
2021/11/19 01:09:17;;;;;;;;;;;;;;;14.23;65.75;101126.44;4945627;29;19938;-76
2021/11/19 01:11:43;;;;;;;;;;;;;;;14.09;66.06;101124.91;4945560;29;20025;-77
2021/11/19 01:14:12;;;;;;;;;;;;;;;14.03;66.35;101129.16;4944553;29;20357;-77
2021/11/19 01:16:41;;;;;;;;;;;;;;;13.98;66.33;101123.84;4945462;29;19938;-76
2021/11/19 01:19:09;;;;;;;;;;;;;;;13.81;67.28;101122.25;4944255;29;19914;-76
2021/11/19 01:21:46;;;;;;;;;;;;;;;13.83;67.31;101124.66;4943835;29;19918;-76
2021/11/19 01:24:15;;;;;;;;;;;;;;;13.71;68.11;101119.19;4943706;29;20258;-76
2021/11/19 01:26:41;;;;;;;;;;;;;;;13.66;68.50;101125.03;4943024;29;19985;-77
2021/11/19 01:29:14;;;;;;;;;;;;;;;13.68;68.34;101111.50;4942926;29;19918;-76
2021/11/19 01:31:44;;;;;;;;;;;;;;;13.47;68.91;101109.78;4943464;29;20300;-76
2021/11/19 01:34:09;;;;;;;;;;;;;;;13.54;68.96;101098.00;4943438;29;19914;-76
2021/11/19 01:36:35;;;;;;;;;;;;;;;13.51;68.73;101105.09;4943143;29;19985;-76
2021/11/19 01:39:02;;;;;;;;;;;;;;;13.59;68.42;101092.94;4944020;29;20314;-77
2021/11/19 01:41:39;;;;;;;;;;;;;;;13.53;68.65;101099.13;4943354;29;19918;-76
2021/11/19 01:44:17;;;;;;;;;;;;;;;13.47;68.65;101095.81;4942685;29;19918;-77
2021/11/19 01:46:45;;;;;;;;;;;;;;;13.56;68.61;101090.03;4943148;29;19914;-77
2021/11/19 01:49:11;;;;;;;;;;;;;;;13.43;68.79;101088.53;4943524;29;19977;-76
2021/11/19 01:51:40;;;;;;;;;;;;;;;13.38;69.00;101094.38;4943727;29;19969;-77
2021/11/19 01:54:18;;;;;;;;;;;;;;;13.33;69.33;101098.25;4941986;29;19922;-77
2021/11/19 01:56:53;;;;;;;;;;;;;;;13.32;69.36;101108.63;4942428;29;19914;-77
2021/11/19 01:59:22;;;;;;;;;;;;;;;13.16;69.75;101107.75;4941876;29;20278;-77
2021/11/19 02:01:57;;;;;;;;;;;;;;;13.14;70.01;101100.88;4941542;29;20005;-77
2021/11/19 02:04:28;;;;;;;;;;;;;;;13.19;70.26;101103.41;4941722;29;19914;-76
2021/11/19 02:07:12;;;;;;;;;;;;;;;13.18;70.46;101097.03;4941745;29;19941;-77
2021/11/19 02:09:56;;;;;;;;;;;;;;;13.09;70.83;101099.97;4942079;29;19914;-77
2021/11/19 02:12:28;;;;;;;;;;;;;;;13.04;70.83;101102.22;4941845;29;19918;-76
2021/11/19 02:14:57;;;;;;;;;;;;;;;12.97;70.61;101102.03;4941916;29;19966;-76
2021/11/19 02:17:23;;;;;;;;;;;;;;;12.96;70.56;101101.22;4941699;29;19914;-77
2021/11/19 02:19:52;;;;;;;;;;;;;;;13.00;70.30;101107.72;4942411;29;19922;-76
2021/11/19 02:22:25;;;;;;;;;;;;;;;13.05;70.26;101106.66;4942803;29;19921;-76
2021/11/19 02:24:53;;;;;;;;;;;;;;;13.04;70.50;101111.41;4942802;29;19927;-77
2021/11/19 02:27:29;;;;;;;;;;;;;;;13.03;70.58;101112.59;4942593;29;20053;-76
2021/11/19 02:30:06;;;;;;;;;;;;;;;13.08;70.71;101112.31;4942529;29;19974;-77
2021/11/19 02:32:34;;;;;;;;;;;;;;;13.02;71.04;101110.97;4941879;29;19922;-76
2021/11/19 02:34:59;;;;;;;;;;;;;;;13.06;71.23;101111.88;4942056;29;19972;-77
2021/11/19 02:37:31;;;;;;;;;;;;;;;13.09;71.62;101113.13;4942045;29;19914;-77
2021/11/19 02:39:59;;;;;;;;;;;;;;;12.96;72.02;101112.41;4942101;29;19915;-76
2021/11/19 02:42:30;;;;;;;;;;;;;;;13.03;71.99;101117.34;4942604;29;19921;-77
2021/11/19 02:44:57;;;;;;;;;;;;;;;13.04;72.05;101118.97;4942060;29;19961;-77
2021/11/19 02:47:24;;;;;;;;;;;;;;;13.08;71.73;101119.91;4942808;29;20346;-76
2021/11/19 02:49:50;;;;;;;;;;;;;;;13.04;71.73;101119.78;4942067;29;20278;-77
2021/11/19 02:52:18;;;;;;;;;;;;;;;13.02;71.51;101124.94;4935507;29;19914;-77
2021/11/19 02:54:46;;;;;;;;;;;;;;;13.05;71.61;101132.63;4941312;29;19915;-77
2021/11/19 02:57:12;;;;;;;;;;;;;;;13.00;71.55;101127.28;4942062;29;19954;-76
2021/11/19 02:59:37;;;;;;;;;;;;;;;13.03;71.34;101129.34;4941437;29;19914;-76
2021/11/19 03:02:11;;;;;;;;;;;;;;;12.95;71.24;101121.94;4942120;29;19921;-77
2021/11/19 03:04:42;;;;;;;;;;;;;;;13.06;70.80;101131.44;4942025;29;19914;-76
2021/11/19 03:07:11;;;;;;;;;;;;;;;13.00;70.96;101127.28;4942027;29;19966;-76
2021/11/19 03:09:38;;;;;;;;;;;;;;;13.07;70.86;101124.69;4942479;29;20317;-77
2021/11/19 03:12:05;;;;;;;;;;;;;;;12.90;71.01;101119.41;4941226;29;19914;-76
2021/11/19 03:14:36;;;;;;;;;;;;;;;12.93;70.80;101115.06;4941196;29;19914;-76
2021/11/19 03:17:03;;;;;;;;;;;;;;;12.90;70.81;101124.19;4941866;29;19946;-76
2021/11/19 03:19:29;;;;;;;;;;;;;;;13.01;70.38;101126.09;4941052;29;19921;-77
2021/11/19 03:21:54;;;;;;;;;;;;;;;12.97;70.38;101116.81;4942285;29;19978;-76
2021/11/19 03:24:21;;;;;;;;;;;;;;;12.94;70.45;101114.72;4941217;29;19914;-78
2021/11/19 03:26:47;;;;;;;;;;;;;;;12.95;70.35;101121.94;4941433;29;19969;-77
2021/11/19 03:29:13;;;;;;;;;;;;;;;12.96;70.04;101123.56;4940739;29;19922;-77
2021/11/19 03:31:39;;;;;;;;;;;;;;;13.02;69.46;101116.56;4941128;29;19918;-76
2021/11/19 03:34:09;;;;;;;;;;;;;;;13.02;69.64;101119.34;4940902;29;19922;-77
2021/11/19 03:36:35;;;;;;;;;;;;;;;13.01;69.55;101126.09;4941825;29;19915;-76
2021/11/19 03:39:04;;;;;;;;;;;;;;;12.94;69.48;101125.06;4940769;29;19921;-76
2021/11/19 03:41:31;;;;;;;;;;;;;;;12.88;69.65;101124.53;4941081;29;19920;-76
2021/11/19 03:43:58;;;;;;;;;;;;;;;12.84;69.72;101132.81;4940738;29;19915;-77
2021/11/19 03:46:27;;;;;;;;;;;;;;;12.85;69.57;101133.63;4940164;29;19915;-76
2021/11/19 03:48:52;;;;;;;;;;;;;;;12.87;69.57;101136.88;4940711;29;19918;-76
2021/11/19 03:51:20;;;;;;;;;;;;;;;12.82;69.52;101134.31;4940230;29;19921;-76
2021/11/19 03:53:51;;;;;;;;;;;;;;;12.85;69.12;101137.22;4940524;29;20014;-77
2021/11/19 03:56:17;;;;;;;;;;;;;;;12.77;69.58;101143.75;4941351;29;19914;-77
2021/11/19 03:58:45;;;;;;;;;;;;;;;12.81;69.08;101141.09;4941401;29;19981;-77
2021/11/19 04:01:26;;;;;;;;;;;;;;;12.80;69.26;101142.25;4940450;29;19921;-77
2021/11/19 04:03:52;;;;;;;;;;;;;;;12.71;69.73;101138.78;4939642;29;20295;-77
2021/11/19 04:06:19;;;;;;;;;;;;;;;12.68;69.57;101134.75;4938548;29;19914;-76
2021/11/19 04:08:45;;;;;;;;;;;;;;;12.66;69.85;101133.44;4938917;29;19922;-76
2021/11/19 04:11:11;;;;;;;;;;;;;;;12.68;69.72;101133.94;4939294;29;19979;-77
2021/11/19 04:13:37;;;;;;;;;;;;;;;12.70;69.88;101131.59;4940761;29;19921;-77
2021/11/19 04:16:05;;;;;;;;;;;;;;;12.69;69.63;101129.97;4939808;29;19949;-77
2021/11/19 04:18:31;;;;;;;;;;;;;;;12.69;69.15;101129.97;4940539;29;19915;-76
2021/11/19 04:20:59;;;;;;;;;;;;;;;12.63;69.19;101131.38;4941096;29;19914;-77
2021/11/19 04:23:25;;;;;;;;;;;;;;;12.57;69.09;101137.22;4939792;29;19977;-76
2021/11/19 04:25:52;;;;;;;;;;;;;;;12.58;69.68;101132.44;4940136;29;19919;-76
2021/11/19 04:28:20;;;;;;;;;;;;;;;12.54;69.42;101140.69;4939468;29;20358;-76
2021/11/19 04:30:47;;;;;;;;;;;;;;;12.50;70.09;101144.53;4939589;29;19918;-77
2021/11/19 04:33:13;;;;;;;;;;;;;;;12.56;70.17;101143.13;4939850;29;19918;-77
2021/11/19 04:35:44;;;;;;;;;;;;;;;12.45;70.14;101142.81;4940470;29;19922;-77
2021/11/19 04:38:13;;;;;;;;;;;;;;;12.50;70.46;101139.78;4931662;29;19930;-77
2021/11/19 04:40:39;;;;;;;;;;;;;;;12.51;70.14;101152.56;4940028;29;19914;-78
2021/11/19 04:43:06;;;;;;;;;;;;;;;12.41;70.04;101153.06;4939900;29;19964;-77
2021/11/19 04:45:32;;;;;;;;;;;;;;;12.46;70.05;101150.00;4940163;29;19919;-77
2021/11/19 04:47:58;;;;;;;;;;;;;;;12.44;70.53;101149.56;4940460;29;19914;-76
2021/11/19 04:50:28;;;;;;;;;;;;;;;12.40;70.06;101151.41;4939925;29;20387;-76
2021/11/19 04:52:54;;;;;;;;;;;;;;;12.42;70.01;101160.28;4939717;29;19915;-77
2021/11/19 04:55:23;;;;;;;;;;;;;;;12.43;71.17;101166.66;4940728;29;19915;-77
2021/11/19 04:57:48;;;;;;;;;;;;;;;12.32;70.47;101169.13;4940609;29;19915;-76
2021/11/19 05:00:16;;;;;;;;;;;;;;;12.31;71.71;101167.50;4940031;29;20361;-76
2021/11/19 05:02:44;;;;;;;;;;;;;;;12.32;72.42;101177.50;4938642;29;19914;-77
2021/11/19 05:05:10;;;;;;;;;;;;;;;12.34;71.70;101172.38;4938948;29;19942;-76
2021/11/19 05:07:36;;;;;;;;;;;;;;;12.33;72.40;101171.56;4939562;29;19914;-77
2021/11/19 05:10:01;;;;;;;;;;;;;;;12.28;72.26;101169.00;4939202;29;19915;-76
2021/11/19 05:12:29;;;;;;;;;;;;;;;12.21;72.74;101173.56;4939031;29;20293;-76
2021/11/19 05:14:55;;;;;;;;;;;;;;;12.23;73.55;101179.59;4939894;29;20362;-77
2021/11/19 05:17:23;;;;;;;;;;;;;;;12.19;73.44;101178.66;4939272;28;19980;-77
2021/11/19 05:19:50;;;;;;;;;;;;;;;12.23;73.71;101179.59;4941899;29;20005;-77
2021/11/19 05:22:15;;;;;;;;;;;;;;;12.27;72.75;101175.75;4943929;29;19914;-77
2021/11/19 05:24:41;;;;;;;;;;;;;;;12.27;72.66;101180.53;4943064;29;20350;-78
2021/11/19 05:27:07;;;;;;;;;;;;;;;12.17;73.11;101176.22;4942745;29;20025;-79
2021/11/19 05:29:32;;;;;;;;;;;;;;;12.12;73.84;101178.44;4942833;29;19922;-77
2021/11/19 05:31:58;;;;;;;;;;;;;;;12.12;73.06;101176.47;4942665;29;19949;-76
2021/11/19 05:34:24;;;;;;;;;;;;;;;12.09;73.39;101181.91;4943198;29;19914;-76
2021/11/19 05:36:50;;;;;;;;;;;;;;;12.11;74.06;101177.63;4943642;29;19922;-76
2021/11/19 05:39:16;;;;;;;;;;;;;;;12.07;73.87;101177.50;4943150;29;20309;-77
2021/11/19 05:41:49;;;;;;;;;;;;;;;12.11;73.32;101179.59;4943642;29;19925;-77
2021/11/19 05:44:14;;;;;;;;;;;;;;;12.12;72.98;101181.22;4945819;29;19914;-76
2021/11/19 05:46:40;;;;;;;;;;;;;;;12.07;74.36;101185.88;4946589;29;19981;-77
2021/11/19 05:49:07;;;;;;;;;;;;;;;12.02;74.18;101186.09;4944685;29;19914;-77
2021/11/19 05:51:32;;;;;;;;;;;;;;;12.00;73.99;101185.66;4945190;29;19969;-76
2021/11/19 05:53:59;;;;;;;;;;;;;;;11.97;75.12;101194.69;4961773;29;19997;-77
2021/11/19 05:56:24;;;;;;;;;;;;;;;12.01;74.54;101195.63;4943960;29;20027;-77
2021/11/19 05:58:53;;;;;;;;;;;;;;;12.05;74.60;101199.38;4943792;29;19915;-76
2021/11/19 06:01:20;;;;;;;;;;;;;;;12.04;74.30;101194.94;4943505;29;19914;-77
2021/11/19 06:03:49;;;;;;;;;;;;;;;12.06;74.14;101198.19;4942596;29;19920;-77
2021/11/19 06:06:15;;;;;;;;;;;;;;;12.19;73.50;101206.56;4944249;29;19914;-76
2021/11/19 06:08:41;;;;;;;;;;;;;;;12.44;72.76;101205.38;4943570;29;19918;-76
2021/11/19 06:11:12;;;;;;;;;;;;;;;12.73;72.37;101206.25;4942070;29;19915;-77
2021/11/19 06:13:40;;;;;;;;;;;;;;;13.01;71.13;101215.50;4942190;29;20362;-76
2021/11/19 06:16:08;;;;;;;;;;;;;;;13.31;69.90;101210.38;4941898;29;20369;-78
2021/11/19 06:18:35;;;;;;;;;;;;;;;13.67;68.88;101219.75;4941133;29;19915;-77
2021/11/19 06:21:03;;;;;;;;;;;;;;;14.07;67.64;101216.81;4941132;29;19915;-77
2021/11/19 06:23:38;;;;;;;;;;;;;;;14.46;66.30;101216.94;4941145;29;20001;-78
2021/11/19 06:26:08;;;;;;;;;;;;;;;14.93;65.21;101228.06;4940691;29;20320;-76
2021/11/19 06:28:35;;;;;;;;;;;;;;;15.36;64.01;101237.34;4940552;29;19966;-76
2021/11/19 06:31:02;;;;;;;;;;;;;;;15.74;61.36;101226.47;4939689;29;19918;-76
2021/11/19 06:33:31;;;;;;;;;;;;;;;16.10;60.71;101233.53;4940746;29;19918;-76
2021/11/19 06:35:59;;;;;;;;;;;;;;;16.53;59.33;101232.22;4940319;29;20369;-76
2021/11/19 06:38:27;;;;;;;;;;;;;;;16.95;57.82;101240.50;4940045;29;19915;-77
2021/11/19 06:40:52;;;;;;;;;;;;;;;17.23;56.74;101237.22;4940092;29;19961;-77
2021/11/19 06:43:18;;;;;;;;;;;;;;;17.60;55.31;101242.09;4940697;29;19982;-74
2021/11/19 06:45:48;;;;;;;;;;;;;;;17.74;54.04;101244.28;4940462;29;19915;-74
2021/11/19 06:48:17;;;;;;;;;;;;;;;18.08;54.14;101253.47;4939625;29;19914;-75
2021/11/19 06:50:46;;;;;;;;;;;;;;;18.42;53.26;101251.31;4939992;29;19925;-74
2021/11/19 06:53:17;;;;;;;;;;;;;;;18.71;52.85;101251.56;4940526;29;20340;-74
2021/11/19 06:55:44;;;;;;;;;;;;;;;19.02;51.71;101259.41;4924658;29;19927;-75
2021/11/19 06:58:13;;;;;;;;;;;;;;;19.24;50.72;101256.69;4940093;29;20412;-75
2021/11/19 07:00:43;;;;;;;;;;;;;;;19.66;49.96;101261.72;4939481;29;19915;-75
2021/11/19 07:03:12;;;;;;;;;;;;;;;19.99;48.37;101263.41;4939908;29;19937;-74
2021/11/19 07:05:42;;;;;;;;;;;;;;;20.07;48.13;101269.84;4956346;29;19968;-75
2021/11/19 07:08:08;;;;;;;;;;;;;;;20.32;47.96;101270.69;4939742;29;19961;-75
2021/11/19 07:10:35;;;;;;;;;;;;;;;20.80;46.65;101266.63;4938776;29;19914;-75
2021/11/19 07:13:00;;;;;;;;;;;;;;;21.26;45.97;101268.53;4939889;29;19980;-75
2021/11/19 07:15:26;;;;;;;;;;;;;;;21.41;43.92;101273.75;4939009;29;20366;-76
2021/11/19 07:17:52;;;;;;;;;;;;;;;21.58;43.67;101268.44;4939230;29;20006;-75
2021/11/19 07:20:21;;;;;;;;;;;;;;;21.66;44.13;101275.66;4939182;29;19964;-75
2021/11/19 07:22:47;;;;;;;;;;;;;;;21.59;44.25;101270.03;4939233;29;19953;-75
2021/11/19 07:25:15;;;;;;;;;;;;;;;22.00;43.05;101275.03;4939169;29;20005;-75
2021/11/19 07:27:41;;;;;;;;;;;;;;;22.13;42.34;101273.38;4938927;29;20270;-75
2021/11/19 07:30:09;;;;;;;;;;;;;;;22.15;41.56;101279.41;4939313;29;19914;-75
2021/11/19 07:32:34;;;;;;;;;;;;;;;22.37;41.02;101272.38;4938987;29;19918;-74
2021/11/19 07:35:00;;;;;;;;;;;;;;;22.66;41.46;101266.44;4939167;29;19969;-75
2021/11/19 07:37:26;;;;;;;;;;;;;;;22.75;41.45;101273.25;4938904;29;19915;-75
2021/11/19 07:39:55;;;;;;;;;;;;;;;23.11;39.93;101274.91;4939383;29;20269;-75
2021/11/19 07:42:20;;;;;;;;;;;;;;;22.99;40.06;101279.91;4938670;29;20021;-75
2021/11/19 07:44:46;;;;;;;;;;;;;;;22.94;39.24;101277.50;4939404;29;19915;-75
2021/11/19 07:47:14;;;;;;;;;;;;;;;23.04;39.36;101280.66;4938727;29;19918;-76
2021/11/19 07:49:40;;;;;;;;;;;;;;;23.33;39.19;101276.28;4939318;29;20369;-75
2021/11/19 07:52:05;;;;;;;;;;;;;;;23.50;38.74;101274.44;4938377;29;19915;-75
2021/11/19 07:54:31;;;;;;;;;;;;;;;23.16;40.17;101282.94;4938375;29;19914;-75
2021/11/19 07:57:00;;;;;;;;;;;;;;;23.05;40.23;101282.28;4938415;29;19915;-75
2021/11/19 07:59:27;;;;;;;;;;;;;;;22.78;39.95;101285.75;4939065;29;19922;-75
2021/11/19 08:01:59;;;;;;;;;;;;;;;22.58;41.03;101282.69;4938594;29;19919;-76
2021/11/19 08:04:24;;;;;;;;;;;;;;;22.22;41.07;101282.22;4938096;29;20008;-75
2021/11/19 08:06:55;;;;;;;;;;;;;;;22.43;40.87;101275.56;4938357;29;20058;-75
2021/11/19 08:09:21;;;;;;;;;;;;;;;22.44;40.86;101286.47;4938775;29;19914;-76
2021/11/19 08:11:47;;;;;;;;;;;;;;;22.33;40.84;101276.47;4938489;29;19921;-75
2021/11/19 08:14:12;;;;;;;;;;;;;;;21.63;41.64;101274.47;4938329;29;20329;-75
2021/11/19 08:16:45;;;;;;;;;;;;;;;22.03;40.37;101279.88;4938842;29;19921;-75
2021/11/19 08:19:15;;;;;;;;;;;;;;;21.04;42.74;101282.75;4938773;29;19914;-75
2021/11/19 08:21:41;;;;;;;;;;;;;;;20.78;43.61;101286.84;4938009;29;19968;-74
2021/11/19 08:24:09;;;;;;;;;;;;;;;20.56;44.16;101285.22;4938331;29;19914;-75
2021/11/19 08:26:45;;;;;;;;;;;;;;;21.07;43.08;101287.59;4938230;29;19914;-76
2021/11/19 08:29:14;;;;;;;;;;;;;;;21.05;42.80;101283.56;4938112;29;19915;-76
2021/11/19 08:31:39;;;;;;;;;;;;;;;21.31;42.86;101288.75;4955543;29;20441;-76
2021/11/19 08:34:05;;;;;;;;;;;;;;;20.99;42.67;101288.03;4937537;29;19992;-76
2021/11/19 08:36:34;;;;;;;;;;;;;;;20.41;43.78;101288.06;4938304;29;20293;-76
2021/11/19 08:39:00;;;;;;;;;;;;;;;19.94;46.07;101294.84;4938164;29;19922;-74
2021/11/19 08:41:26;;;;;;;;;;;;;;;20.75;44.39;101287.66;4938740;29;20349;-74
2021/11/19 08:43:56;;;;;;;;;;;;;;;20.31;45.00;101286.03;4938244;29;19919;-74
2021/11/19 08:46:25;;;;;;;;;;;;;;;20.42;45.96;101289.66;4938042;29;19919;-75
2021/11/19 08:48:51;;;;;;;;;;;;;;;20.53;44.23;101292.50;4938029;29;19993;-75
2021/11/19 08:51:24;;;;;;;;;;;;;;;20.59;44.68;101292.91;4938202;29;19994;-75
2021/11/19 08:53:51;;;;;;;;;;;;;;;20.70;45.04;101295.75;4939649;29;19933;-75
2021/11/19 08:56:23;;;;;;;;;;;;;;;20.82;44.35;101292.47;4941940;29;19956;-75
2021/11/19 08:58:48;;;;;;;;;;;;;;;20.82;44.11;101290.47;4941615;29;19953;-75
2021/11/19 09:01:15;;;;;;;;;;;;;;;20.79;44.23;101294.13;4941759;29;19957;-74
2021/11/19 09:03:43;;;;;;;;;;;;;;;20.81;44.75;101302.19;4941732;29;19914;-75
2021/11/19 09:06:10;;;;;;;;;;;;;;;20.71;44.11;101277.56;4941706;29;20384;-75
2021/11/19 09:08:36;;;;;;;;;;;;;;;20.49;45.13;101293.72;4926261;29;20259;-75
2021/11/19 09:11:03;;;;;;;;;;;;;;;20.73;44.44;101295.75;4941529;29;19961;-75
2021/11/19 09:13:32;;;;;;;;;;;;;;;20.88;43.57;101291.69;4941480;29;19918;-75
2021/11/19 09:15:58;;;;;;;;;;;;;;;20.81;43.96;101297.34;4941305;29;19914;-75
2021/11/19 09:18:29;;;;;;;;;;;;;;;20.78;44.66;101303.81;4941235;29;19920;-75
2021/11/19 09:21:03;;;;;;;;;;;;;;;20.72;44.52;101305.44;4941257;29;19914;-75
2021/11/19 09:23:34;;;;;;;;;;;;;;;20.57;44.90;101298.19;4941024;29;19970;-75
2021/11/19 09:26:03;;;;;;;;;;;;;;;20.67;43.78;101300.19;4941491;29;19914;-75
2021/11/19 09:28:32;;;;;;;;;;;;;;;20.52;44.58;101295.75;4941515;29;20266;-74
2021/11/19 09:30:58;;;;;;;;;;;;;;;20.36;44.52;101288.44;4941462;29;19914;-74
2021/11/19 09:33:25;;;;;;;;;;;;;;;20.46;44.92;101286.88;4922866;29;19918;-75
2021/11/19 09:35:53;;;;;;;;;;;;;;;20.75;43.48;101278.34;4922933;29;20322;-74
2021/11/19 09:38:19;;;;;;;;;;;;;;;20.58;43.53;101280.00;4922360;29;20239;-74
2021/11/19 09:40:57;;;;;;;;;;;;;;;20.28;43.79;101284.00;4922211;29;19918;-75
2021/11/19 09:43:31;;;;;;;;;;;;;;;20.45;43.56;101279.56;4922040;29;19925;-75
2021/11/19 09:46:12;;;;;;;;;;;;;;;20.12;44.08;101289.22;4922581;29;20366;-75
2021/11/19 09:48:56;;;;;;;;;;;;;;;19.84;43.74;101285.16;4921992;29;19914;-74
2021/11/19 09:51:37;;;;;;;;;;;;;;;19.36;44.95;101282.53;4921868;29;19941;-75
2021/11/19 09:54:03;;;;;;;;;;;;;;;19.35;45.35;101282.94;4922009;29;19919;-75
2021/11/19 09:56:40;;;;;;;;;;;;;;;19.53;43.80;101280.19;4922861;29;19914;-75
2021/11/19 09:59:21;;;;;;;;;;;;;;;19.57;44.34;101276.16;4922852;29;20039;-76
2021/11/19 10:02:01;;;;;;;;;;;;;;;20.03;42.98;101269.88;4922333;29;19982;-75
2021/11/19 10:04:45;;;;;;;;;;;;;;;20.52;42.28;101273.13;4920965;29;19915;-75
2021/11/19 10:07:24;;;;;;;;;;;;;;;21.03;40.44;101283.94;4921901;29;20305;-75
2021/11/19 10:10:04;;;;;;;;;;;;;;;21.48;40.12;101284.25;4921950;29;20322;-75
2021/11/19 10:12:50;;;;;;;;;;;;;;;21.74;39.27;101279.25;4921531;29;19966;-75
2021/11/19 10:15:22;;;;;;;;;;;;;;;22.00;38.98;101277.88;4920323;29;19969;-75
2021/11/19 10:18:02;;;;;;;;;;;;;;;21.84;39.57;101282.03;4905815;29;19926;-75
2021/11/19 10:20:32;;;;;;;;;;;;;;;22.27;38.01;101278.94;4921683;29;19929;-75
2021/11/19 10:23:07;;;;;;;;;;;;;;;22.41;37.59;101275.16;4921724;29;19962;-75
2021/11/19 10:25:32;;;;;;;;;;;;;;;22.69;36.62;101268.41;4921498;29;20449;-75
2021/11/19 10:27:59;;;;;;;;;;;;;;;22.67;36.76;101273.72;4922357;29;19930;-75
2021/11/19 10:30:32;;;;;;;;;;;;;;;22.83;36.72;101271.13;4921493;29;19921;-75
2021/11/19 10:33:04;;;;;;;;;;;;;;;22.77;36.39;101261.47;4936729;29;19918;-75
2021/11/19 10:35:58;;;;;;;;;;;;;;;22.66;36.50;101261.56;4939707;29;19997;-75
2021/11/19 10:38:27;;;;;;;;;;;;;;;23.09;36.01;101261.13;4905341;29;20353;-79
2021/11/19 10:41:07;;;;;;;;;;;;;;;23.25;35.98;101257.72;4940541;29;19918;-75
2021/11/19 10:43:53;;;;;;;;;;;;;;;23.48;35.38;101257.81;4940262;29;20294;-75
2021/11/19 10:46:35;;;;;;;;;;;;;;;23.51;35.35;101254.13;4923065;29;19938;-75
2021/11/19 10:49:27;;;;;;;;;;;;;;;22.69;36.31;101254.22;4939925;29;19915;-75
2021/11/19 10:51:58;;;;;;;;;;;;;;;22.22;37.08;101248.19;4935224;29;19966;-74
2021/11/19 10:54:42;;;;;;;;;;;;;;;21.85;37.87;101241.16;4939447;29;19954;-75
2021/11/19 10:57:10;;;;;;;;;;;;;;;21.80;37.60;101241.59;4940235;29;19921;-75
2021/11/19 10:59:41;;;;;;;;;;;;;;;22.01;37.63;101232.13;4939382;29;19938;-75
2021/11/19 11:02:12;;;;;;;;;;;;;;;22.06;37.69;101239.38;4939380;29;20009;-74
2021/11/19 11:05:02;;;;;;;;;;;;;;;21.83;37.82;101232.25;4939195;29;19929;-74
2021/11/19 11:07:28;;;;;;;;;;;;;;;22.41;36.83;101233.44;4955378;29;19941;-75
2021/11/19 11:10:04;;;;;;;;;;;;;;;22.71;36.11;101226.28;4955805;29;19921;-75
2021/11/19 11:12:34;;;;;;;;;;;;;;;21.75;37.46;101229.88;4939665;29;19914;-75
2021/11/19 11:15:20;;;;;;;;;;;;;;;22.58;36.47;101230.84;4939471;28;19914;-74
2021/11/19 11:18:04;;;;;;;;;;;;;;;22.94;35.69;101217.91;4938281;29;19916;-74
2021/11/19 11:20:38;;;;;;;;;;;;;;;23.02;36.10;101226.38;4938823;29;19969;-75
2021/11/19 11:23:24;;;;;;;;;;;;;;;22.85;36.29;101216.78;4938855;29;19914;-75
2021/11/19 11:26:01;;;;;;;;;;;;;;;22.91;36.19;101213.13;4921804;29;19929;-75
2021/11/19 11:28:45;;;;;;;;;;;;;;;22.32;36.47;101209.63;4938738;29;20404;-75
2021/11/19 11:31:25;;;;;;;;;;;;;;;21.47;39.11;101197.69;4939198;29;19914;-74
2021/11/19 11:33:56;;;;;;;;;;;;;;;21.00;40.03;101196.28;4939767;29;20270;-75
2021/11/19 11:36:29;;;;;;;;;;;;;;;20.49;40.12;101192.75;4956088;29;19918;-75
2021/11/19 11:39:04;;;;;;;;;;;;;;;20.36;41.03;101192.38;4939131;29;20420;-75
2021/11/19 11:41:42;;;;;;;;;;;;;;;20.33;41.20;101181.84;4939472;29;19918;-74
2021/11/19 11:44:11;;;;;;;;;;;;;;;20.09;41.63;101182.69;4938831;29;20009;-74
2021/11/19 11:47:01;;;;;;;;;;;;;;;20.04;41.38;101175.44;4938766;29;19942;-75
2021/11/19 11:49:32;;;;;;;;;;;;;;;20.02;41.63;101171.38;4938632;29;19918;-74
2021/11/19 11:51:57;;;;;;;;;;;;;;;20.42;41.07;101162.47;4938795;29;19921;-75
2021/11/19 11:54:23;;;;;;;;;;;;;;;20.45;39.86;101165.69;4938978;29;20269;-74
2021/11/19 11:57:11;;;;;;;;;;;;;;;20.35;40.83;101173.00;4938948;29;19922;-75
2021/11/19 11:59:47;;;;;;;;;;;;;;;20.53;40.79;101167.31;4938372;29;20013;-75
2021/11/19 12:02:39;;;;;;;;;;;;;;;20.29;41.15;101164.09;4938421;29;19973;-74
2021/11/19 12:05:23;;;;;;;;;;;;;;;20.46;41.32;101175.81;4902459;29;20353;-74
2021/11/19 12:07:52;;;;;;;;;;;;;;;20.71;40.77;101167.25;4938363;29;20319;-75
2021/11/19 12:10:30;;;;;;;;;;;;;;;20.53;40.98;101168.13;4938906;29;19914;-73
2021/11/19 12:13:23;;;;;;;;;;;;;;;20.47;40.73;101164.09;4938423;29;19921;-74
2021/11/19 12:15:58;;;;;;;;;;;;;;;20.28;40.00;101170.97;4939088;29;20013;-76
2021/11/19 12:18:42;;;;;;;;;;;;;;;20.13;40.38;101172.19;4937843;29;19915;-74
2021/11/19 12:21:10;;;;;;;;;;;;;;;20.22;39.89;101169.75;4939262;29;19937;-74
2021/11/19 12:23:55;;;;;;;;;;;;;;;20.40;40.04;101164.91;4938203;29;20009;-73
2021/11/19 12:26:32;;;;;;;;;;;;;;;20.82;39.96;101163.19;4939183;29;20277;-74
2021/11/19 12:29:03;;;;;;;;;;;;;;;20.85;39.13;101165.19;4942044;29;19929;-74
2021/11/19 12:31:50;;;;;;;;;;;;;;;21.03;38.83;101164.31;4941870;29;19918;-73
2021/11/19 12:34:32;;;;;;;;;;;;;;;21.21;38.38;101164.25;4942450;29;19921;-74
2021/11/19 12:37:03;;;;;;;;;;;;;;;21.47;38.15;101160.09;4942156;29;19938;-75
2021/11/19 12:39:39;;;;;;;;;;;;;;;21.31;37.82;101155.72;4942051;29;20393;-75
2021/11/19 12:42:12;;;;;;;;;;;;;;;21.33;37.64;101152.47;4942433;29;19921;-74
2021/11/19 12:44:55;;;;;;;;;;;;;;;21.11;38.26;101146.91;4942706;29;20274;-75
2021/11/19 12:47:21;;;;;;;;;;;;;;;21.00;39.58;101142.53;4941600;29;19915;-74
2021/11/19 12:50:05;;;;;;;;;;;;;;;21.10;38.70;101139.63;4941776;29;19914;-74